• Join FlightAware (Why Join?)
  • Login
  • US Flag 
01:38PM EDT


 

Airport Tracker/Info


-or-


 

Live Flight TrackerFlight Track Log ✈ SWA896 ✈ 21-Apr-2013 ✈ KLAS - KSMF

Flight Track Log - Related Links

Times and Time Zones

All times are in EDT time to prevent confusion due to time zone crossing. See the SWA896 flight status page for this flight to view local times or setup timezone preferences in your user account.

Time Position Orientation Groundspeed Altitude Reporting Facility
EDT Latitude Longitude Course Direction KTS MPH feet Rate Location/Type
02:13PM 36.0753 -115.1739 258° West 179 206 3,200  Level Los Angeles Center
02:14PM 36.0611 -115.2583 258° West 248 285 5,100 1,680 Climbing Los Angeles Center
02:15PM 35.9906 -115.2919 201° Southwest 275 316 7,000 1,200 Climbing Los Angeles Center
02:17PM 35.9194 -115.3456 211° Southwest 269 310 7,800 1,260 Climbing Los Angeles Center
02:18PM 35.8553 -115.3969 213° Southwest 271 312 9,900 1,500 Climbing Los Angeles Center
02:19PM 35.8464 -115.4897 263° West 278 320 11,000 1,560 Climbing Los Angeles Center
02:20PM 35.8583 -115.6036 277° West 287 330 13,200 1,800 Climbing Los Angeles Center
02:21PM 35.8686 -115.7144 277° West 328 377 14,800 2,100 Climbing Los Angeles Center
02:22PM 35.8825 -115.8450 278° West 357 411 17,600 2,400 Climbing Los Angeles Center
02:23PM 35.9008 -115.9719 280° West 375 432 19,800 2,220 Climbing Los Angeles Center
02:24PM 35.9847 -116.0728 316° Northwest 387 445 22,200 2,160 Climbing Los Angeles Center
02:25PM 36.0614 -116.1597 317° Northwest 392 451 24,300 1,800 Climbing Los Angeles Center
02:26PM 36.1406 -116.2519 317° Northwest 398 458 26,000 1,560 Climbing Los Angeles Center
02:27PM 36.2236 -116.3472 317° Northwest 404 465 27,600 1,620 Climbing Los Angeles Center
02:28PM 36.3253 -116.4661 317° Northwest 416 479 29,400 1,740 Climbing Los Angeles Center
02:29PM 36.4100 -116.5642 317° Northwest 418 481 31,300 1,200 Climbing Los Angeles Center
02:30PM 36.4933 -116.6603 317° Northwest 413 475 32,000 300 Climbing Los Angeles Center
02:31PM 36.5867 -116.7631 319° Northwest 425 489 32,000  Level Los Angeles Center
02:32PM 36.6878 -116.8392 329° Northwest 424 488 32,000  Level Los Angeles Center
02:33PM 36.7814 -116.9111 328° Northwest 424 488 32,000  Level Los Angeles Center
02:34PM 36.8867 -116.9958 327° Northwest 421 484 32,000  Level Oakland Center
02:35PM 36.9869 -117.0717 329° Northwest 421 484 32,000  Level Oakland Center
02:36PM 37.0869 -117.1486 328° Northwest 420 483 32,000  Level Oakland Center
02:37PM 37.1867 -117.2253 329° Northwest 420 483 32,000  Level Oakland Center
02:38PM 37.3042 -117.3197 327° Northwest 417 480 32,000  Level Oakland Center
02:39PM 37.3794 -117.4303 311° West 418 481 32,000  Level Oakland Center
02:40PM 37.4539 -117.5436 310° West 418 481 32,000  Level Oakland Center
02:41PM 37.5281 -117.6581 309° West 419 482 32,000  Level Oakland Center
02:42PM 37.6019 -117.7703 310° West 414 476 32,000  Level Oakland Center
02:43PM 37.6764 -117.8825 310° West 415 478 32,000  Level Oakland Center
02:44PM 37.7514 -117.9972 310° West 420 483 32,000 -300 Level Oakland Center
02:45PM 37.8253 -118.1114 309° West 418 481 31,500 -720 Descending Oakland Center
02:47PM 37.8997 -118.2258 310° West 420 483 30,600 -780 Descending Oakland Center
02:48PM 37.9758 -118.3439 309° West 427 491 30,000 -300 Descending Oakland Center
02:49PM 38.0650 -118.4828 309° West 424 488 30,000  Level Oakland Center
02:50PM 38.1358 -118.5928 309° West 427 491 30,000  Level Oakland Center
02:51PM 38.2092 -118.7097 309° West 424 488 30,000  Level Oakland Center
02:52PM 38.2836 -118.8258 309° West 425 489 30,000  Level Oakland Center
02:53PM 38.3589 -118.9422 310° West 423 487 30,000  Level Oakland Center
02:54PM 38.4314 -119.0592 308° West 419 482 30,000  Level Oakland Center
02:55PM 38.5211 -119.2008 309° West 427 491 30,000  Level Oakland Center
02:56PM 38.5944 -119.3189 308° West 423 487 30,000 -540 Level Oakland Center
02:57PM 38.6414 -119.4550 294° West 417 480 29,000 -1,080 Descending Oakland Center
02:58PM 38.6739 -119.5967 286° West 413 475 27,900 -1,020 Descending Oakland Center
02:59PM 38.7064 -119.7375 287° West 412 474 26,900 -1,020 Descending Oakland Center
03:00PM 38.7403 -119.8775 287° West 412 474 25,900 -1,020 Descending Oakland Center
03:01PM 38.7733 -120.0153 287° West 407 468 24,900 -1,020 Descending Oakland Center
03:02PM 38.7903 -120.1494 279° West 389 448 23,800 -1,140 Descending Oakland Center
03:03PM 38.8036 -120.3122 276° West 384 442 22,600 -1,080 Descending Oakland Center
03:04PM 38.8153 -120.4464 276° West 381 438 21,600 -1,020 Descending Oakland Center
03:05PM 38.8261 -120.5797 276° West 377 434 20,600 -1,020 Descending Oakland Center
03:06PM 38.8372 -120.7122 276° West 375 432 19,600 -1,260 Descending Oakland Center
03:07PM 38.8489 -120.8414 277° West 371 427 18,100 -1,800 Descending Oakland Center
03:08PM 38.8886 -120.9572 294° West 358 412 16,000 -1,080 Descending Oakland Center
03:09PM 38.9267 -121.0694 294° West 348 400 16,000 -240 Level Oakland Center
03:10PM 38.9500 -121.1333 295° West 301 346 15,700 -1,260 Descending Northern Cal TRACON
03:11PM 38.9833 -121.2333 293° West 291 335 14,100 -1,620 Descending Northern Cal TRACON
03:12PM 39.0167 -121.3333 293° West 293 337 12,500 -1,560 Descending Northern Cal TRACON
03:13PM 39.0000 -121.4333 258° West 303 349 11,000 -1,500 Descending Northern Cal TRACON
03:14PM 39.0000 -121.5333 270° West 291 335 9,600 -1,440 Descending Northern Cal TRACON
03:15PM 38.9833 -121.6333 258° West 277 319 8,200 -1,080 Descending Northern Cal TRACON
03:15PM 38.9758 -121.6789 258° West 280 322 7,900 -1,200 Descending Oakland Center
03:16PM 38.9022 -121.7056 196° South 288 331 6,300 -1,440 Descending Oakland Center
03:17PM 38.8225 -121.7069 181° South 288 331 5,000 -1,320 Descending Oakland Center
03:18PM 38.7278 -121.7072 180° South 286 329 3,700 -960 Descending Oakland Center
03:19PM 38.6581 -121.7058 179° South 271 312 3,100 -540 Descending Oakland Center
03:20PM 38.6183 -121.6700 145° Southeast 234 269 2,600 -960 Descending Oakland Center
03:22PM 38.6333 -121.6000 75° East 173 199 1,000 -1,080 Descending Northern Cal TRACON
03:23PM 38.6667 -121.6000 360° North 147 169 300 -720 Descending Northern Cal TRACON